sensor_id;sensor_type;location;lat;lon;timestamp;pressure;altitude;pressure_sealevel;temperature;humidity
78582;BME280;67878;46.242;5.974;2023-12-04T00:01:54;95376.53;;;18.83;42.36
78582;BME280;67878;46.242;5.974;2023-12-04T00:04:20;95368.84;;;18.81;42.38
78582;BME280;67878;46.242;5.974;2023-12-04T00:06:45;95363.63;;;18.81;42.43
78582;BME280;67878;46.242;5.974;2023-12-04T00:09:11;95358.38;;;18.81;42.16
78582;BME280;67878;46.242;5.974;2023-12-04T00:11:37;95354.09;;;18.80;42.16
78582;BME280;67878;46.242;5.974;2023-12-04T00:14:02;95355.09;;;18.79;42.17
78582;BME280;67878;46.242;5.974;2023-12-04T00:16:28;95352.63;;;18.77;42.26
78582;BME280;67878;46.242;5.974;2023-12-04T00:18:53;95358.66;;;18.78;42.07
78582;BME280;67878;46.242;5.974;2023-12-04T00:21:19;95358.84;;;18.76;42.06
78582;BME280;67878;46.242;5.974;2023-12-04T00:23:44;95360.66;;;18.76;41.78
78582;BME280;67878;46.242;5.974;2023-12-04T00:26:12;95362.44;;;18.75;42.01
78582;BME280;67878;46.242;5.974;2023-12-04T00:28:38;95351.13;;;18.75;42.17
78582;BME280;67878;46.242;5.974;2023-12-04T00:31:03;95353.75;;;18.75;41.95
78582;BME280;67878;46.242;5.974;2023-12-04T00:33:29;95343.44;;;18.73;42.01
78582;BME280;67878;46.242;5.974;2023-12-04T00:35:54;95328.44;;;18.75;42.02
78582;BME280;67878;46.242;5.974;2023-12-04T00:38:20;95327.59;;;18.75;41.88
78582;BME280;67878;46.242;5.974;2023-12-04T00:40:45;95312.88;;;18.74;41.86
78582;BME280;67878;46.242;5.974;2023-12-04T00:43:11;95320.72;;;18.74;41.73
78582;BME280;67878;46.242;5.974;2023-12-04T00:45:36;95320.72;;;18.74;41.89
78582;BME280;67878;46.242;5.974;2023-12-04T00:48:02;95313.84;;;18.73;41.92
78582;BME280;67878;46.242;5.974;2023-12-04T00:50:28;95303.50;;;18.71;41.75
78582;BME280;67878;46.242;5.974;2023-12-04T00:52:53;95303.38;;;18.73;41.71
78582;BME280;67878;46.242;5.974;2023-12-04T00:55:19;95301.56;;;18.73;41.63
78582;BME280;67878;46.242;5.974;2023-12-04T00:57:44;95311.38;;;18.71;41.51
78582;BME280;67878;46.242;5.974;2023-12-04T01:00:10;95306.13;;;18.71;41.63
78582;BME280;67878;46.242;5.974;2023-12-04T01:02:36;95313.16;;;18.71;41.42
78582;BME280;67878;46.242;5.974;2023-12-04T01:05:01;95318.41;;;18.71;41.44
78582;BME280;67878;46.242;5.974;2023-12-04T01:07:27;95323.63;;;18.71;41.40
78582;BME280;67878;46.242;5.974;2023-12-04T01:09:52;95317.59;;;18.70;41.20
78582;BME280;67878;46.242;5.974;2023-12-04T01:12:18;95310.69;;;18.69;41.36
78582;BME280;67878;46.242;5.974;2023-12-04T01:14:43;95302.84;;;18.69;41.23
78582;BME280;67878;46.242;5.974;2023-12-04T01:17:08;95314.97;;;18.70;41.15
78582;BME280;67878;46.242;5.974;2023-12-04T01:19:34;95300.22;;;18.69;40.98
78582;BME280;67878;46.242;5.974;2023-12-04T01:21:59;95299.28;;;18.70;40.82
78582;BME280;67878;46.242;5.974;2023-12-04T01:24:25;95300.09;;;18.71;40.94
78582;BME280;67878;46.242;5.974;2023-12-04T01:26:50;95294.84;;;18.71;40.89
78582;BME280;67878;46.242;5.974;2023-12-04T01:29:15;95295.66;;;18.71;40.90
78582;BME280;67878;46.242;5.974;2023-12-04T01:31:41;95302.53;;;18.72;41.19
78582;BME280;67878;46.242;5.974;2023-12-04T01:34:09;95295.38;;;18.74;41.60
78582;BME280;67878;46.242;5.974;2023-12-04T01:36:40;95290.66;;;18.78;41.00
78582;BME280;67878;46.242;5.974;2023-12-04T01:39:05;95296.88;;;18.77;40.98
78582;BME280;67878;46.242;5.974;2023-12-04T01:41:31;95305.53;;;18.77;41.18
78582;BME280;67878;46.242;5.974;2023-12-04T01:43:56;95296.88;;;18.77;41.07
78582;BME280;67878;46.242;5.974;2023-12-04T01:46:24;95298.50;;;18.78;40.78
78582;BME280;67878;46.242;5.974;2023-12-04T01:48:50;95296.72;;;18.78;41.01
78582;BME280;67878;46.242;5.974;2023-12-04T01:51:17;95286.56;;;18.75;41.02
78582;BME280;67878;46.242;5.974;2023-12-04T01:53:43;95281.03;;;18.78;40.82
78582;BME280;67878;46.242;5.974;2023-12-04T01:56:09;95277.75;;;18.76;40.45
78582;BME280;67878;46.242;5.974;2023-12-04T01:58:35;95282.16;;;18.76;40.80
78582;BME280;67878;46.242;5.974;2023-12-04T02:01:02;95275.25;;;18.75;40.78
78582;BME280;67878;46.242;5.974;2023-12-04T02:03:28;95276.25;;;18.74;40.65
78582;BME280;67878;46.242;5.974;2023-12-04T02:05:54;95269.38;;;18.73;40.93
78582;BME280;67878;46.242;5.974;2023-12-04T02:08:20;95270.31;;;18.72;40.75
78582;BME280;67878;46.242;5.974;2023-12-04T02:10:46;95258.22;;;18.71;40.87
78582;BME280;67878;46.242;5.974;2023-12-04T02:13:11;95253.16;;;18.69;40.78
78582;BME280;67878;46.242;5.974;2023-12-04T02:15:37;95267.06;;;18.70;40.99
78582;BME280;67878;46.242;5.974;2023-12-04T02:18:03;95274.25;;;18.68;40.78
78582;BME280;67878;46.242;5.974;2023-12-04T02:20:32;95273.44;;;18.67;40.47
78582;BME280;67878;46.242;5.974;2023-12-04T02:22:59;95262.13;;;18.67;40.72
78582;BME280;67878;46.242;5.974;2023-12-04T02:25:24;95261.47;;;18.65;40.89
78582;BME280;67878;46.242;5.974;2023-12-04T02:27:52;95261.47;;;18.65;40.43
78582;BME280;67878;46.242;5.974;2023-12-04T02:30:19;95259.81;;;18.64;40.43
78582;BME280;67878;46.242;5.974;2023-12-04T02:32:47;95251.16;;;18.63;40.56
78582;BME280;67878;46.242;5.974;2023-12-04T02:35:14;95241.69;;;18.62;40.47
78582;BME280;67878;46.242;5.974;2023-12-04T02:37:42;95234.00;;;18.60;40.81
78582;BME280;67878;46.242;5.974;2023-12-04T02:40:08;95228.75;;;18.60;40.85
78582;BME280;67878;46.242;5.974;2023-12-04T02:42:33;95225.34;;;18.60;40.79
78582;BME280;67878;46.242;5.974;2023-12-04T02:44:59;95224.53;;;18.59;40.66
78582;BME280;67878;46.242;5.974;2023-12-04T02:47:24;95223.69;;;18.59;40.81
78582;BME280;67878;46.242;5.974;2023-12-04T02:49:50;95223.69;;;18.59;40.88
78582;BME280;67878;46.242;5.974;2023-12-04T02:52:16;95222.03;;;18.58;40.66
78582;BME280;67878;46.242;5.974;2023-12-04T02:54:41;95222.03;;;18.58;40.85
78582;BME280;67878;46.242;5.974;2023-12-04T02:57:07;95216.00;;;18.57;40.91
78582;BME280;67878;46.242;5.974;2023-12-04T02:59:32;95209.16;;;18.56;40.81
78582;BME280;67878;46.242;5.974;2023-12-04T03:01:58;95207.34;;;18.57;40.47
78582;BME280;67878;46.242;5.974;2023-12-04T03:04:23;95213.38;;;18.57;40.53
78582;BME280;67878;46.242;5.974;2023-12-04T03:06:48;95202.94;;;18.57;40.54
78582;BME280;67878;46.242;5.974;2023-12-04T03:09:14;95203.59;;;18.59;40.59
78582;BME280;67878;46.242;5.974;2023-12-04T03:11:40;95194.94;;;18.59;40.57
78582;BME280;67878;46.242;5.974;2023-12-04T03:14:05;95192.31;;;18.59;40.59
78582;BME280;67878;46.242;5.974;2023-12-04T03:16:31;95185.28;;;18.59;40.32
78582;BME280;67878;46.242;5.974;2023-12-04T03:18:57;95184.28;;;18.60;40.48
78582;BME280;67878;46.242;5.974;2023-12-04T03:21:22;95187.91;;;18.59;40.46
78582;BME280;67878;46.242;5.974;2023-12-04T03:23:48;95182.81;;;18.58;40.57
78582;BME280;67878;46.242;5.974;2023-12-04T03:26:13;95173.50;;;18.55;40.48
78582;BME280;67878;46.242;5.974;2023-12-04T03:28:39;95176.09;;;18.55;40.42
78582;BME280;67878;46.242;5.974;2023-12-04T03:31:07;95178.56;;;18.57;40.47
78582;BME280;67878;46.242;5.974;2023-12-04T03:33:33;95180.53;;;18.55;40.46
78582;BME280;67878;46.242;5.974;2023-12-04T03:35:59;95178.72;;;18.55;40.41
78582;BME280;67878;46.242;5.974;2023-12-04T03:38:24;95178.09;;;18.53;40.33
78582;BME280;67878;46.242;5.974;2023-12-04T03:40:50;95173.66;;;18.54;40.40
78582;BME280;67878;46.242;5.974;2023-12-04T03:43:15;95165.00;;;18.53;40.44
78582;BME280;67878;46.242;5.974;2023-12-04T03:45:41;95165.16;;;18.52;40.16
78582;BME280;67878;46.242;5.974;2023-12-04T03:48:06;95164.34;;;18.51;40.35
78582;BME280;67878;46.242;5.974;2023-12-04T03:50:32;95155.69;;;18.51;40.12
78582;BME280;67878;46.242;5.974;2023-12-04T03:52:57;95158.44;;;18.49;40.25
78582;BME280;67878;46.242;5.974;2023-12-04T03:55:23;95152.06;;;18.52;40.27
78582;BME280;67878;46.242;5.974;2023-12-04T03:57:48;95145.69;;;18.46;40.20
78582;BME280;67878;46.242;5.974;2023-12-04T04:00:14;95152.25;;;18.50;40.36
78582;BME280;67878;46.242;5.974;2023-12-04T04:02:41;95153.88;;;18.51;40.41
78582;BME280;67878;46.242;5.974;2023-12-04T04:05:07;95142.25;;;18.46;40.27
78582;BME280;67878;46.242;5.974;2023-12-04T04:07:32;95148.50;;;18.53;40.31
78582;BME280;67878;46.242;5.974;2023-12-04T04:09:58;95138.69;;;18.55;40.11
78582;BME280;67878;46.242;5.974;2023-12-04T04:12:23;95138.53;;;18.56;40.03
78582;BME280;67878;46.242;5.974;2023-12-04T04:14:49;95143.59;;;18.58;40.06
78582;BME280;67878;46.242;5.974;2023-12-04T04:17:14;95149.66;;;18.58;40.00
78582;BME280;67878;46.242;5.974;2023-12-04T04:19:40;95137.41;;;18.59;40.06
78582;BME280;67878;46.242;5.974;2023-12-04T04:22:06;95145.25;;;18.59;40.04
78582;BME280;67878;46.242;5.974;2023-12-04T04:24:31;95141.81;;;18.58;39.62
78582;BME280;67878;46.242;5.974;2023-12-04T04:26:56;95136.59;;;18.58;39.74
78582;BME280;67878;46.242;5.974;2023-12-04T04:29:22;95140.00;;;18.59;39.72
78582;BME280;67878;46.242;5.974;2023-12-04T04:31:47;95134.59;;;18.60;39.85
78582;BME280;67878;46.242;5.974;2023-12-04T04:34:13;95134.47;;;18.62;39.94
78582;BME280;67878;46.242;5.974;2023-12-04T04:36:38;95140.19;;;18.66;40.13
78582;BME280;67878;46.242;5.974;2023-12-04T04:39:03;95131.34;;;18.67;39.85
78582;BME280;67878;46.242;5.974;2023-12-04T04:41:30;95135.44;;;18.69;40.01
78582;BME280;67878;46.242;5.974;2023-12-04T04:43:55;95141.50;;;18.70;39.96
78582;BME280;67878;46.242;5.974;2023-12-04T04:46:21;95132.81;;;18.69;40.01
78582;BME280;67878;46.242;5.974;2023-12-04T04:48:46;95135.44;;;18.69;40.13
78582;BME280;67878;46.242;5.974;2023-12-04T04:51:12;95132.81;;;18.69;40.27
78582;BME280;67878;46.242;5.974;2023-12-04T04:53:38;95132.81;;;18.69;40.25
78582;BME280;67878;46.242;5.974;2023-12-04T04:56:04;95125.16;;;18.68;40.35
78582;BME280;67878;46.242;5.974;2023-12-04T04:58:29;95114.69;;;18.68;40.16
78582;BME280;67878;46.242;5.974;2023-12-04T05:00:55;95113.88;;;18.67;40.09
78582;BME280;67878;46.242;5.974;2023-12-04T05:03:20;95112.06;;;18.68;39.92
78582;BME280;67878;46.242;5.974;2023-12-04T05:05:46;95107.78;;;18.67;39.99
78582;BME280;67878;46.242;5.974;2023-12-04T05:08:11;95099.94;;;18.67;40.10
78582;BME280;67878;46.242;5.974;2023-12-04T05:10:38;95076.41;;;18.67;40.10
78582;BME280;67878;46.242;5.974;2023-12-04T05:13:04;95086.06;;;18.66;40.00
78582;BME280;67878;46.242;5.974;2023-12-04T05:15:30;95072.16;;;18.66;40.04
78582;BME280;67878;46.242;5.974;2023-12-04T05:17:55;95072.97;;;18.66;40.01
78582;BME280;67878;46.242;5.974;2023-12-04T05:20:21;95068.75;;;18.65;39.99
78582;BME280;67878;46.242;5.974;2023-12-04T05:22:46;95072.97;;;18.66;40.09
78582;BME280;67878;46.242;5.974;2023-12-04T05:25:12;95070.38;;;18.66;39.94
78582;BME280;67878;46.242;5.974;2023-12-04T05:27:37;95076.59;;;18.65;39.99
78582;BME280;67878;46.242;5.974;2023-12-04T05:30:03;95092.09;;;18.67;40.00
78582;BME280;67878;46.242;5.974;2023-12-04T05:32:29;95075.59;;;18.66;40.01
78582;BME280;67878;46.242;5.974;2023-12-04T05:34:54;95074.78;;;18.66;40.05
78582;BME280;67878;46.242;5.974;2023-12-04T05:37:19;95056.47;;;18.66;40.15
78582;BME280;67878;46.242;5.974;2023-12-04T05:39:45;95052.88;;;18.67;40.28
78582;BME280;67878;46.242;5.974;2023-12-04T05:42:10;95056.47;;;18.66;39.94
78582;BME280;67878;46.242;5.974;2023-12-04T05:44:36;95055.66;;;18.65;39.98
78582;BME280;67878;46.242;5.974;2023-12-04T05:47:01;95050.44;;;18.65;39.85
78582;BME280;67878;46.242;5.974;2023-12-04T05:49:27;95052.06;;;18.66;39.80
78582;BME280;67878;46.242;5.974;2023-12-04T05:51:54;95059.09;;;18.66;40.04
78582;BME280;67878;46.242;5.974;2023-12-04T05:54:19;95063.34;;;18.67;40.11
78582;BME280;67878;46.242;5.974;2023-12-04T05:56:45;95067.59;;;18.68;40.14
78582;BME280;67878;46.242;5.974;2023-12-04T05:59:10;95059.75;;;18.68;39.76
78582;BME280;67878;46.242;5.974;2023-12-04T06:01:36;95056.31;;;18.67;39.91
78582;BME280;67878;46.242;5.974;2023-12-04T06:04:01;95051.09;;;18.67;39.72
78582;BME280;67878;46.242;5.974;2023-12-04T06:06:27;95015.28;;;18.68;40.04
78582;BME280;67878;46.242;5.974;2023-12-04T06:08:53;95023.94;;;18.68;39.92
78582;BME280;67878;46.242;5.974;2023-12-04T06:11:18;95015.09;;;18.69;40.00
78582;BME280;67878;46.242;5.974;2023-12-04T06:13:44;95007.25;;;18.69;39.86
78582;BME280;67878;46.242;5.974;2023-12-04T06:16:10;95017.56;;;18.71;40.06
78582;BME280;67878;46.242;5.974;2023-12-04T06:18:37;95012.34;;;18.71;40.03
78582;BME280;67878;46.242;5.974;2023-12-04T06:21:04;95017.72;;;18.69;39.67
78582;BME280;67878;46.242;5.974;2023-12-04T06:23:30;95022.00;;;18.70;39.84
78582;BME280;67878;46.242;5.974;2023-12-04T06:25:56;95016.75;;;18.70;39.79
78582;BME280;67878;46.242;5.974;2023-12-04T06:28:21;95008.09;;;18.70;39.73
78582;BME280;67878;46.242;5.974;2023-12-04T06:30:48;95004.50;;;18.71;39.75
78582;BME280;67878;46.242;5.974;2023-12-04T06:33:14;95004.00;;;18.67;40.09
78582;BME280;67878;46.242;5.974;2023-12-04T06:35:41;95027.22;;;18.70;39.82
78582;BME280;67878;46.242;5.974;2023-12-04T06:38:07;95055.81;;;18.72;39.97
78582;BME280;67878;46.242;5.974;2023-12-04T06:40:34;95062.84;;;18.71;40.32
78582;BME280;67878;46.242;5.974;2023-12-04T06:43:00;95042.09;;;18.70;39.97
78582;BME280;67878;46.242;5.974;2023-12-04T06:45:25;95017.28;;;18.74;39.90
78582;BME280;67878;46.242;5.974;2023-12-04T06:47:53;94994.03;;;18.71;39.91
78582;BME280;67878;46.242;5.974;2023-12-04T06:50:19;94999.91;;;18.73;39.88
78582;BME280;67878;46.242;5.974;2023-12-04T06:52:45;94993.84;;;18.72;39.74
78582;BME280;67878;46.242;5.974;2023-12-04T06:55:11;95011.34;;;18.72;39.84
78582;BME280;67878;46.242;5.974;2023-12-04T06:57:37;95010.38;;;18.73;40.04
78582;BME280;67878;46.242;5.974;2023-12-04T07:00:03;95011.19;;;18.73;40.04
78582;BME280;67878;46.242;5.974;2023-12-04T07:02:29;94997.31;;;18.73;39.81
78582;BME280;67878;46.242;5.974;2023-12-04T07:04:54;94986.69;;;18.74;39.90
78582;BME280;67878;46.242;5.974;2023-12-04T07:07:20;94965.91;;;18.73;39.88
78582;BME280;67878;46.242;5.974;2023-12-04T07:09:46;94965.91;;;18.73;40.02
78582;BME280;67878;46.242;5.974;2023-12-04T07:12:11;94968.38;;;18.74;40.01
78582;BME280;67878;46.242;5.974;2023-12-04T07:14:36;94963.16;;;18.74;39.76
78582;BME280;67878;46.242;5.974;2023-12-04T07:17:02;94964.94;;;18.74;39.77
78582;BME280;67878;46.242;5.974;2023-12-04T07:19:27;94975.41;;;18.74;39.54
78582;BME280;67878;46.242;5.974;2023-12-04T07:21:55;94983.91;;;18.76;39.77
78582;BME280;67878;46.242;5.974;2023-12-04T07:24:20;94988.16;;;18.77;39.49
78582;BME280;67878;46.242;5.974;2023-12-04T07:26:45;94986.34;;;18.77;39.85
78582;BME280;67878;46.242;5.974;2023-12-04T07:29:11;94983.91;;;18.76;39.76
78582;BME280;67878;46.242;5.974;2023-12-04T07:31:37;94976.88;;;18.76;39.43
78582;BME280;67878;46.242;5.974;2023-12-04T07:34:03;94970.66;;;18.77;39.79
78582;BME280;67878;46.242;5.974;2023-12-04T07:36:29;94957.44;;;18.79;39.84
78582;BME280;67878;46.242;5.974;2023-12-04T07:38:54;94945.97;;;18.80;39.67
78582;BME280;67878;46.242;5.974;2023-12-04T07:41:20;94942.53;;;18.79;39.64
78582;BME280;67878;46.242;5.974;2023-12-04T07:43:46;94952.00;;;18.80;39.71
78582;BME280;67878;46.242;5.974;2023-12-04T07:46:11;94969.50;;;18.80;39.74
78582;BME280;67878;46.242;5.974;2023-12-04T07:48:37;94975.56;;;18.80;39.82
78582;BME280;67878;46.242;5.974;2023-12-04T07:51:03;94982.44;;;18.81;40.28
78582;BME280;67878;46.242;5.974;2023-12-04T07:53:28;94982.44;;;18.81;40.25
78582;BME280;67878;46.242;5.974;2023-12-04T07:55:54;94973.78;;;18.81;40.09
78582;BME280;67878;46.242;5.974;2023-12-04T07:58:19;94967.56;;;18.82;40.12
78582;BME280;67878;46.242;5.974;2023-12-04T08:00:45;94970.31;;;18.80;40.12
78582;BME280;67878;46.242;5.974;2023-12-04T08:03:10;94969.50;;;18.80;39.75
78582;BME280;67878;46.242;5.974;2023-12-04T08:05:36;94971.16;;;18.81;40.14
78582;BME280;67878;46.242;5.974;2023-12-04T08:08:02;94965.94;;;18.81;40.12
78582;BME280;67878;46.242;5.974;2023-12-04T08:10:27;94955.47;;;18.81;40.21
78582;BME280;67878;46.242;5.974;2023-12-04T08:12:53;94949.41;;;18.80;40.38
78582;BME280;67878;46.242;5.974;2023-12-04T08:15:19;94941.72;;;18.79;40.29
78582;BME280;67878;46.242;5.974;2023-12-04T08:17:44;94949.56;;;18.79;40.35
78582;BME280;67878;46.242;5.974;2023-12-04T08:20:10;94951.38;;;18.78;40.23
78582;BME280;67878;46.242;5.974;2023-12-04T08:22:41;94962.00;;;18.77;40.28
78582;BME280;67878;46.242;5.974;2023-12-04T08:25:08;94955.97;;;18.76;40.17
78582;BME280;67878;46.242;5.974;2023-12-04T08:27:35;94959.56;;;18.75;40.38
78582;BME280;67878;46.242;5.974;2023-12-04T08:30:00;94956.94;;;18.75;40.14
78582;BME280;67878;46.242;5.974;2023-12-04T08:32:28;94958.72;;;18.75;40.28
78582;BME280;67878;46.242;5.974;2023-12-04T08:34:53;94963.16;;;18.74;40.15
78582;BME280;67878;46.242;5.974;2023-12-04T08:37:19;94957.91;;;18.74;40.31
78582;BME280;67878;46.242;5.974;2023-12-04T08:39:45;94960.69;;;18.73;40.16
78582;BME280;67878;46.242;5.974;2023-12-04T08:42:11;94965.91;;;18.73;40.13
78582;BME280;67878;46.242;5.974;2023-12-04T08:44:37;94968.38;;;18.74;40.15
78582;BME280;67878;46.242;5.974;2023-12-04T08:47:02;94954.50;;;18.74;40.17
78582;BME280;67878;46.242;5.974;2023-12-04T08:49:28;94946.75;;;18.72;40.30
78582;BME280;67878;46.242;5.974;2023-12-04T08:51:53;94946.63;;;18.74;40.40
78582;BME280;67878;46.242;5.974;2023-12-04T08:54:18;94944.16;;;18.72;40.60
78582;BME280;67878;46.242;5.974;2023-12-04T08:56:44;94963.44;;;18.71;40.60
78582;BME280;67878;46.242;5.974;2023-12-04T08:59:10;94930.25;;;18.72;40.62
78582;BME280;67878;46.242;5.974;2023-12-04T09:01:35;94969.50;;;18.72;40.41
78582;BME280;67878;46.242;5.974;2023-12-04T09:04:01;94940.09;;;18.70;40.74
78582;BME280;67878;46.242;5.974;2023-12-04T09:06:27;94946.28;;;18.69;40.58
78582;BME280;67878;46.242;5.974;2023-12-04T09:08:53;94970.63;;;18.69;40.58
78582;BME280;67878;46.242;5.974;2023-12-04T09:11:19;94952.50;;;18.68;40.45
78582;BME280;67878;46.242;5.974;2023-12-04T09:13:44;94966.56;;;18.67;40.34
78582;BME280;67878;46.242;5.974;2023-12-04T09:16:10;94972.78;;;18.66;40.53
78582;BME280;67878;46.242;5.974;2023-12-04T09:18:35;94973.78;;;18.65;40.49
78582;BME280;67878;46.242;5.974;2023-12-04T09:21:01;94966.88;;;18.64;40.60
78582;BME280;67878;46.242;5.974;2023-12-04T09:23:26;94968.69;;;18.63;40.52
78582;BME280;67878;46.242;5.974;2023-12-04T09:25:51;94962.81;;;18.61;40.74
78582;BME280;67878;46.242;5.974;2023-12-04T09:28:17;94960.97;;;19.02;40.54
78582;BME280;67878;46.242;5.974;2023-12-04T09:30:43;94965.09;;;19.36;40.01
78582;BME280;67878;46.242;5.974;2023-12-04T09:33:08;94973.66;;;19.61;39.18
78582;BME280;67878;46.242;5.974;2023-12-04T09:35:34;94976.72;;;19.81;39.02
78582;BME280;67878;46.242;5.974;2023-12-04T09:38:00;94980.06;;;19.98;38.80
78582;BME280;67878;46.242;5.974;2023-12-04T09:40:26;94970.63;;;20.12;38.89
78582;BME280;67878;46.242;5.974;2023-12-04T09:42:52;94975.47;;;20.23;38.97
78582;BME280;67878;46.242;5.974;2023-12-04T09:45:19;94978.69;;;20.33;38.58
78582;BME280;67878;46.242;5.974;2023-12-04T09:47:48;94977.78;;;20.41;38.75
78582;BME280;67878;46.242;5.974;2023-12-04T09:50:14;94976.75;;;20.50;39.46
78582;BME280;67878;46.242;5.974;2023-12-04T09:52:41;94976.88;;;20.57;39.36
78582;BME280;67878;46.242;5.974;2023-12-04T09:55:07;94964.84;;;20.63;39.37
78582;BME280;67878;46.242;5.974;2023-12-04T09:57:33;94969.38;;;20.69;39.20
78582;BME280;67878;46.242;5.974;2023-12-04T10:00:00;94966.22;;;20.73;39.15
78582;BME280;67878;46.242;5.974;2023-12-04T10:02:27;94966.53;;;20.78;38.77
78582;BME280;67878;46.242;5.974;2023-12-04T10:04:53;94964.19;;;20.84;39.08
78582;BME280;67878;46.242;5.974;2023-12-04T10:07:18;94960.34;;;20.86;39.39
78582;BME280;67878;46.242;5.974;2023-12-04T10:09:47;94962.97;;;20.86;38.86
78582;BME280;67878;46.242;5.974;2023-12-04T10:12:13;94959.03;;;20.90;39.17
78582;BME280;67878;46.242;5.974;2023-12-04T10:14:38;94951.59;;;20.94;39.05
78582;BME280;67878;46.242;5.974;2023-12-04T10:17:14;94961.72;;;20.97;38.59
78582;BME280;67878;46.242;5.974;2023-12-04T10:19:41;94953.50;;;21.00;38.92
78582;BME280;67878;46.242;5.974;2023-12-04T10:22:08;94950.69;;;21.01;38.81
78582;BME280;67878;46.242;5.974;2023-12-04T10:24:38;94953.97;;;21.03;38.78
78582;BME280;67878;46.242;5.974;2023-12-04T10:27:08;94952.97;;;21.04;38.39
78582;BME280;67878;46.242;5.974;2023-12-04T10:29:42;94942.47;;;21.04;38.27
78582;BME280;67878;46.242;5.974;2023-12-04T10:32:09;94941.94;;;21.09;38.65
78582;BME280;67878;46.242;5.974;2023-12-04T10:34:35;94941.94;;;21.09;38.50
78582;BME280;67878;46.242;5.974;2023-12-04T10:37:02;94940.72;;;21.12;38.18
78582;BME280;67878;46.242;5.974;2023-12-04T10:39:28;94942.38;;;21.13;38.46
78582;BME280;67878;46.242;5.974;2023-12-04T10:42:03;94934.66;;;21.11;38.23
78582;BME280;67878;46.242;5.974;2023-12-04T10:44:32;94920.72;;;21.11;38.06
78582;BME280;67878;46.242;5.974;2023-12-04T10:46:59;94932.50;;;21.15;38.58
78582;BME280;67878;46.242;5.974;2023-12-04T10:49:27;94937.56;;;21.16;38.47
78582;BME280;67878;46.242;5.974;2023-12-04T10:51:57;94923.00;;;20.99;38.34
78582;BME280;67878;46.242;5.974;2023-12-04T10:54:25;94932.28;;;20.72;38.81
78582;BME280;67878;46.242;5.974;2023-12-04T10:56:52;94922.53;;;20.43;38.92
78582;BME280;67878;46.242;5.974;2023-12-04T10:59:23;94913.41;;;20.15;39.58
78582;BME280;67878;46.242;5.974;2023-12-04T11:01:51;94916.69;;;19.95;39.82
78582;BME280;67878;46.242;5.974;2023-12-04T11:04:23;94917.94;;;19.76;40.06
78582;BME280;67878;46.242;5.974;2023-12-04T11:06:52;94901.47;;;19.59;40.26
78582;BME280;67878;46.242;5.974;2023-12-04T11:09:20;94908.13;;;19.46;40.56
78582;BME280;67878;46.242;5.974;2023-12-04T11:11:51;94905.06;;;19.35;40.70
78582;BME280;67878;46.242;5.974;2023-12-04T11:14:22;94900.03;;;19.25;40.73
78582;BME280;67878;46.242;5.974;2023-12-04T11:16:49;94900.88;;;19.17;40.73
78582;BME280;67878;46.242;5.974;2023-12-04T11:19:50;94900.09;;;19.09;40.49
78582;BME280;67878;46.242;5.974;2023-12-04T11:22:17;94903.38;;;19.02;40.97
78582;BME280;67878;46.242;5.974;2023-12-04T11:24:47;94901.44;;;18.96;41.03
78582;BME280;67878;46.242;5.974;2023-12-04T11:27:15;94899.31;;;18.92;40.93
78582;BME280;67878;46.242;5.974;2023-12-04T11:29:42;94899.03;;;18.87;41.22
78582;BME280;67878;46.242;5.974;2023-12-04T11:32:13;94890.88;;;18.81;41.41
78582;BME280;67878;46.242;5.974;2023-12-04T11:34:50;94873.72;;;18.79;41.58
78582;BME280;67878;46.242;5.974;2023-12-04T11:37:15;94874.88;;;18.76;41.18
78582;BME280;67878;46.242;5.974;2023-12-04T11:39:42;94875.16;;;18.73;41.26
78582;BME280;67878;46.242;5.974;2023-12-04T11:42:09;94870.28;;;18.70;41.51
78582;BME280;67878;46.242;5.974;2023-12-04T11:44:34;94872.25;;;18.68;41.41
78582;BME280;67878;46.242;5.974;2023-12-04T11:47:05;94860.31;;;18.66;41.88
78582;BME280;67878;46.242;5.974;2023-12-04T11:49:31;94863.09;;;18.64;41.75
78582;BME280;67878;46.242;5.974;2023-12-04T11:52:01;94856.41;;;18.62;41.93
78582;BME280;67878;46.242;5.974;2023-12-04T11:54:56;94858.69;;;18.65;42.65
78582;BME280;67878;46.242;5.974;2023-12-04T11:57:26;94848.34;;;18.71;42.26
78582;BME280;67878;46.242;5.974;2023-12-04T12:02:33;94847.56;;;18.79;42.18
78582;BME280;67878;46.242;5.974;2023-12-04T12:04:58;94851.63;;;18.81;42.33
78582;BME280;67878;46.242;5.974;2023-12-04T12:07:24;94837.56;;;18.83;42.34
78582;BME280;67878;46.242;5.974;2023-12-04T12:09:50;94845.41;;;18.83;42.15
78582;BME280;67878;46.242;5.974;2023-12-04T12:12:15;94833.94;;;18.84;42.12
78582;BME280;67878;46.242;5.974;2023-12-04T12:14:41;94832.97;;;18.85;42.18
78582;BME280;67878;46.242;5.974;2023-12-04T12:17:06;94824.13;;;18.86;42.34
78582;BME280;67878;46.242;5.974;2023-12-04T12:19:32;94827.56;;;18.86;42.23
78582;BME280;67878;46.242;5.974;2023-12-04T12:21:57;94817.75;;;18.88;42.53
78582;BME280;67878;46.242;5.974;2023-12-04T12:24:25;94820.22;;;18.90;42.60
78582;BME280;67878;46.242;5.974;2023-12-04T12:26:51;94810.56;;;18.90;43.14
78582;BME280;67878;46.242;5.974;2023-12-04T12:29:17;94810.38;;;18.92;42.41
78582;BME280;67878;46.242;5.974;2023-12-04T12:31:43;94811.22;;;18.92;42.56
78582;BME280;67878;46.242;5.974;2023-12-04T12:34:08;94817.25;;;18.93;42.78
78582;BME280;67878;46.242;5.974;2023-12-04T12:36:34;94812.81;;;18.93;42.95
78582;BME280;67878;46.242;5.974;2023-12-04T12:39:00;94813.47;;;18.95;43.09
78582;BME280;67878;46.242;5.974;2023-12-04T12:41:28;94805.63;;;18.95;43.02
78582;BME280;67878;46.242;5.974;2023-12-04T12:43:54;94801.19;;;18.96;43.17
78582;BME280;67878;46.242;5.974;2023-12-04T12:46:21;94810.69;;;18.97;42.95
78582;BME280;67878;46.242;5.974;2023-12-04T12:48:47;94795.78;;;18.97;43.12
78582;BME280;67878;46.242;5.974;2023-12-04T12:51:13;94804.47;;;18.98;43.24
78582;BME280;67878;46.242;5.974;2023-12-04T12:53:38;94796.63;;;18.98;43.05
78582;BME280;67878;46.242;5.974;2023-12-04T12:56:04;94789.59;;;18.98;42.99
78582;BME280;67878;46.242;5.974;2023-12-04T12:58:30;94785.16;;;18.99;43.04